createdAt,value
2023-04-26T00:02:51.731Z,101716.06
2023-04-26T00:07:53.683Z,101717.53
2023-04-26T00:12:55.141Z,101715.44
2023-04-26T00:17:56.703Z,101712.56
2023-04-26T00:22:58.185Z,101722.19
2023-04-26T00:27:59.600Z,101710.88
2023-04-26T00:33:01.098Z,101717.47
2023-04-26T00:38:02.603Z,101713.59
2023-04-26T00:43:05.894Z,101716.13
2023-04-26T00:48:07.489Z,101715.56
2023-04-26T00:53:09.630Z,101713.63
2023-04-26T00:58:11.077Z,101709.66
2023-04-26T01:03:12.965Z,101712.59
2023-04-26T01:08:17.226Z,101722.69
2023-04-26T01:13:19.191Z,101720.66
2023-04-26T01:18:20.817Z,101725.56
2023-04-26T01:23:22.572Z,101726.66
2023-04-26T01:28:24.463Z,101719.28
2023-04-26T01:33:26.154Z,101715.41
2023-04-26T01:38:27.585Z,101719.22
2023-04-26T01:43:29.091Z,101713.25
2023-04-26T01:48:30.943Z,101715.81
2023-04-26T01:53:32.398Z,101706.75
2023-04-26T01:58:33.854Z,101704.97
2023-04-26T02:03:35.967Z,101697.78
2023-04-26T02:08:37.505Z,101706.28
2023-04-26T02:13:39.109Z,101708.63
2023-04-26T02:18:41.664Z,101714.69
2023-04-26T02:23:43.135Z,101725.97
2023-04-26T02:28:44.701Z,101731.50
2023-04-26T02:33:46.331Z,101732.03
2023-04-26T02:38:47.752Z,101737.63
2023-04-26T02:43:49.163Z,101732.66
2023-04-26T02:48:50.923Z,101731.13
2023-04-26T02:53:52.516Z,101732.75
2023-04-26T02:58:54.029Z,101724.72
2023-04-26T03:03:55.686Z,101722.31
2023-04-26T03:08:57.174Z,101720.94
2023-04-26T03:13:58.654Z,101724.69
2023-04-26T03:19:00.078Z,101727.09
2023-04-26T03:24:01.499Z,101721.34
2023-04-26T03:29:03.460Z,101717.06
2023-04-26T03:34:05.485Z,101718.41
2023-04-26T03:39:07.421Z,101715.84
2023-04-26T03:44:08.935Z,101719.16
2023-04-26T03:49:10.585Z,101712.63
2023-04-26T03:54:11.977Z,101709.75
2023-04-26T03:59:13.430Z,101709.75
2023-04-26T04:04:15.047Z,101713.13
2023-04-26T04:09:16.704Z,101713.13
2023-04-26T04:14:18.136Z,101719.09
2023-04-26T04:19:19.529Z,101718.53
2023-04-26T04:24:20.972Z,101713.72
2023-04-26T04:29:22.594Z,101709.34
2023-04-26T04:34:24.582Z,101710.06
2023-04-26T04:39:26.005Z,101711.31
2023-04-26T04:44:27.704Z,101715.53
2023-04-26T04:49:29.209Z,101715.28
2023-04-26T04:54:30.865Z,101721.59
2023-04-26T04:59:33.281Z,101727.03
2023-04-26T05:04:34.986Z,101725.38
2023-04-26T05:09:37.170Z,101723.88
2023-04-26T05:14:38.615Z,101736.59
2023-04-26T05:19:40.688Z,101734.38
2023-04-26T05:24:42.156Z,101752.16
2023-04-26T05:29:43.740Z,101748.78
2023-04-26T05:34:45.341Z,101748.44
2023-04-26T05:39:46.824Z,101744.50
2023-04-26T05:44:48.335Z,101744.59
2023-04-26T05:49:49.770Z,101744.38
2023-04-26T05:54:51.582Z,101751.31
2023-04-26T05:59:53.053Z,101753.78
2023-04-26T06:04:54.604Z,101749.28
2023-04-26T06:09:56.380Z,101756.00
2023-04-26T06:14:57.822Z,101763.31
2023-04-26T06:19:59.345Z,101764.03
2023-04-26T06:25:00.828Z,101755.13
2023-04-26T06:30:02.347Z,101750.44
2023-04-26T06:35:03.901Z,101760.16
2023-04-26T06:40:06.129Z,101770.69
2023-04-26T06:45:08.245Z,101757.34
2023-04-26T06:50:10.213Z,101752.09
2023-04-26T06:55:11.657Z,101744.13
2023-04-26T07:00:22.298Z,101745.47
2023-04-26T07:05:23.852Z,101750.34
2023-04-26T07:10:26.132Z,101753.78
2023-04-26T07:15:28.514Z,101743.88
2023-04-26T07:20:30.101Z,101746.88
2023-04-26T07:25:31.616Z,101732.34
2023-04-26T07:30:33.153Z,101726.81
2023-04-26T07:35:36.214Z,101729.72
2023-04-26T07:40:41.305Z,101722.44
2023-04-26T07:45:43.203Z,101720.53
2023-04-26T07:50:44.891Z,101724.00
2023-04-26T07:55:46.335Z,101725.94
2023-04-26T08:00:50.886Z,101726.69
2023-04-26T08:05:54.000Z,101730.94
2023-04-26T08:10:56.134Z,101732.78
2023-04-26T08:15:57.556Z,101732.19
2023-04-26T08:20:59.209Z,101741.84
2023-04-26T08:26:00.617Z,101744.09
2023-04-26T08:31:02.113Z,101739.25
2023-04-26T08:36:03.746Z,101737.72
2023-04-26T08:41:05.444Z,101742.59
2023-04-26T08:46:11.310Z,101739.66
2023-04-26T08:51:13.988Z,101734.72
2023-04-26T08:56:15.483Z,101730.81
2023-04-26T09:01:18.442Z,101733.59
2023-04-26T09:06:20.120Z,101736.91
2023-04-26T09:11:22.429Z,101738.00
2023-04-26T09:16:37.082Z,101739.69
2023-04-26T09:21:46.721Z,101729.59
2023-04-26T09:27:01.305Z,101734.22
2023-04-26T09:32:02.866Z,101730.75
2023-04-26T09:37:04.311Z,101742.25
2023-04-26T09:42:11.481Z,101735.56
2023-04-26T09:47:13.061Z,101739.41
2023-04-26T09:52:18.658Z,101737.59
2023-04-26T09:57:24.397Z,101734.38
2023-04-26T10:02:28.121Z,101743.94
2023-04-26T10:07:30.564Z,101738.28
2023-04-26T10:12:32.017Z,101741.25
2023-04-26T10:17:33.660Z,101727.06
2023-04-26T10:22:56.334Z,101731.38
2023-04-26T10:27:57.926Z,101730.44
2023-04-26T10:32:59.337Z,101737.50
2023-04-26T10:38:03.690Z,101739.25
2023-04-26T10:43:12.253Z,101736.69
2023-04-26T10:48:19.922Z,101732.81
2023-04-26T10:53:21.432Z,101729.44
2023-04-26T10:58:41.556Z,101727.78
2023-04-26T11:03:47.928Z,101726.50
2023-04-26T11:08:49.637Z,101726.38
2023-04-26T11:13:51.213Z,101725.31
2023-04-26T11:18:55.027Z,101713.75
2023-04-26T11:23:56.848Z,101706.34
2023-04-26T11:28:58.446Z,101701.47
2023-04-26T11:34:10.656Z,101696.00
2023-04-26T11:39:14.211Z,101689.28
2023-04-26T11:44:20.726Z,101688.19
2023-04-26T11:49:22.361Z,101692.47
2023-04-26T11:54:31.483Z,101678.50
2023-04-26T11:59:32.983Z,101686.66
2023-04-26T12:04:34.786Z,101694.16
2023-04-26T12:09:41.278Z,101696.16
2023-04-26T12:14:42.732Z,101700.53
2023-04-26T12:19:44.760Z,101699.56
2023-04-26T12:24:48.671Z,101699.53
2023-04-26T12:29:50.170Z,101700.84
2023-04-26T12:34:51.768Z,101695.41
2023-04-26T12:39:53.316Z,101701.47
2023-04-26T12:44:55.024Z,101710.13
2023-04-26T12:49:56.852Z,101694.03
2023-04-26T12:54:59.036Z,101707.00
2023-04-26T13:00:00.710Z,101709.38
2023-04-26T13:05:04.997Z,101714.13
2023-04-26T13:10:09.201Z,101709.34
2023-04-26T13:15:12.240Z,101715.09
2023-04-26T13:20:13.914Z,101708.81
2023-04-26T13:25:21.646Z,101717.63
2023-04-26T13:30:23.166Z,101727.59
2023-04-26T13:35:25.219Z,101727.41
2023-04-26T13:40:29.824Z,101737.72
2023-04-26T13:45:44.422Z,101734.03
2023-04-26T13:50:46.185Z,101743.34
2023-04-26T13:55:49.267Z,101740.50
2023-04-26T14:00:50.951Z,101739.44
2023-04-26T14:05:52.750Z,101745.28
2023-04-26T14:10:54.273Z,101750.63
2023-04-26T14:15:58.219Z,101744.84
2023-04-26T14:20:59.676Z,101751.00
2023-04-26T14:26:01.286Z,101734.91
2023-04-26T14:31:03.398Z,101741.84
2023-04-26T14:36:05.244Z,101736.91
2023-04-26T14:41:06.748Z,101743.34
2023-04-26T14:46:08.159Z,101743.47
2023-04-26T14:51:09.719Z,101747.22
2023-04-26T14:56:11.150Z,101746.91
2023-04-26T15:01:12.568Z,101742.59
2023-04-26T15:06:14.074Z,101734.63
2023-04-26T15:11:15.607Z,101728.41
2023-04-26T15:16:17.258Z,101724.88
2023-04-26T15:21:19.305Z,101732.88
2023-04-26T15:26:20.815Z,101726.53
2023-04-26T15:31:22.548Z,101735.88
2023-04-26T15:36:24.179Z,101741.63
2023-04-26T15:41:25.587Z,101738.97
2023-04-26T15:46:27.157Z,101740.25
2023-04-26T15:51:28.676Z,101739.91
2023-04-26T15:56:30.158Z,101736.13
2023-04-26T16:01:31.768Z,101738.50
2023-04-26T16:06:36.055Z,101741.44
2023-04-26T16:11:37.739Z,101749.31
2023-04-26T16:16:40.185Z,101744.88
2023-04-26T16:21:42.314Z,101742.09
2023-04-26T16:26:43.791Z,101745.84
2023-04-26T16:31:45.517Z,101742.31
2023-04-26T16:36:49.309Z,101747.47
2023-04-26T16:41:53.712Z,101742.88
2023-04-26T16:46:55.995Z,101747.38
2023-04-26T16:51:58.962Z,101744.22
2023-04-26T16:57:00.612Z,101738.84
2023-04-26T17:02:02.554Z,101744.25
2023-04-26T17:07:04.126Z,101748.28
2023-04-26T17:12:07.296Z,101755.00
2023-04-26T17:17:08.723Z,101746.38
2023-04-26T17:22:10.516Z,101749.78
2023-04-26T17:27:13.090Z,101758.00
2023-04-26T17:32:16.599Z,101748.78
2023-04-26T17:37:18.025Z,101745.97
2023-04-26T17:42:19.475Z,101769.44
2023-04-26T17:47:20.904Z,101762.41
2023-04-26T17:52:22.499Z,101771.25
2023-04-26T17:57:24.101Z,101775.22
2023-04-26T18:02:25.875Z,101779.72
2023-04-26T18:07:30.163Z,101779.13
2023-04-26T18:12:32.132Z,101785.81
2023-04-26T18:17:33.809Z,101788.69
2023-04-26T18:22:35.406Z,101784.66
2023-04-26T18:27:36.916Z,101775.63
2023-04-26T18:32:38.471Z,101790.25
2023-04-26T18:37:41.150Z,101787.97
2023-04-26T18:42:44.911Z,101778.91
2023-04-26T18:47:46.372Z,101784.81
2023-04-26T18:52:47.796Z,101776.56
2023-04-26T18:57:51.460Z,101774.88
2023-04-26T19:02:53.891Z,101776.44
2023-04-26T19:08:02.432Z,101777.13
2023-04-26T19:13:05.293Z,101782.00
2023-04-26T19:18:07.031Z,101784.22
2023-04-26T19:23:09.821Z,101790.09
2023-04-26T19:28:13.674Z,101788.47
2023-04-26T19:33:15.287Z,101801.31
2023-04-26T19:38:17.030Z,101798.78
2023-04-26T19:43:18.715Z,101793.88
2023-04-26T19:48:20.654Z,101797.41
2023-04-26T19:53:24.210Z,101802.03
2023-04-26T19:58:26.370Z,101800.13
2023-04-26T20:03:28.486Z,101804.38
2023-04-26T20:08:31.533Z,101811.13
2023-04-26T20:13:34.575Z,101817.91
2023-04-26T20:18:41.237Z,101822.63
2023-04-26T20:23:43.369Z,101815.69
2023-04-26T20:28:47.510Z,101815.78
2023-04-26T20:33:49.124Z,101813.97
2023-04-26T20:38:51.305Z,101813.09
2023-04-26T20:43:53.168Z,101821.03
2023-04-26T20:48:54.934Z,101825.00
2023-04-26T20:53:57.138Z,101823.25
2023-04-26T20:59:00.737Z,101818.75
2023-04-26T21:04:02.760Z,101815.38
2023-04-26T21:09:06.097Z,101820.03
2023-04-26T21:14:09.404Z,101819.22
2023-04-26T21:19:11.256Z,101830.31
2023-04-26T21:24:13.130Z,101825.97
2023-04-26T21:29:14.690Z,101834.31
2023-04-26T21:34:16.345Z,101834.19
2023-04-26T21:39:18.921Z,101828.00
2023-04-26T21:44:20.536Z,101831.28
2023-04-26T21:49:22.336Z,101840.13
2023-04-26T21:54:25.222Z,101841.59
2023-04-26T21:59:26.762Z,101837.72
2023-04-26T22:04:32.168Z,101837.44
2023-04-26T22:09:33.655Z,101837.88
2023-04-26T22:14:35.152Z,101842.69
2023-04-26T22:19:38.254Z,101843.88
2023-04-26T22:24:39.861Z,101846.72
2023-04-26T22:29:44.169Z,101859.56
2023-04-26T22:34:45.852Z,101853.28
2023-04-26T22:39:47.361Z,101859.66
2023-04-26T22:44:49.213Z,101856.31
2023-04-26T22:49:50.739Z,101860.38
2023-04-26T22:54:52.497Z,101866.66
2023-04-26T22:59:53.978Z,101865.44
2023-04-26T23:04:55.681Z,101871.75
2023-04-26T23:09:57.235Z,101877.88
2023-04-26T23:14:59.233Z,101874.34
2023-04-26T23:20:01.003Z,101879.47
2023-04-26T23:25:02.494Z,101895.16
2023-04-26T23:30:04.715Z,101898.38
2023-04-26T23:35:06.803Z,101896.06
2023-04-26T23:40:10.186Z,101893.50
2023-04-26T23:45:11.681Z,101895.19
2023-04-26T23:50:13.366Z,101894.19
2023-04-26T23:55:15.677Z,101902.81
